sensor_id;sensor_type;location;lat;lon;timestamp;temperature;humidity
30379;DHT22;17168;49.164;9.060;2022-09-09T00:00:59;16.60;92.70
30379;DHT22;17168;49.164;9.060;2022-09-09T00:03:38;16.60;93.00
30379;DHT22;17168;49.164;9.060;2022-09-09T00:06:19;16.50;93.10
30379;DHT22;17168;49.164;9.060;2022-09-09T00:09:01;16.60;93.20
30379;DHT22;17168;49.164;9.060;2022-09-09T00:11:40;16.60;93.40
30379;DHT22;17168;49.164;9.060;2022-09-09T00:14:18;16.60;93.40
30379;DHT22;17168;49.164;9.060;2022-09-09T00:16:56;16.60;93.60
30379;DHT22;17168;49.164;9.060;2022-09-09T00:19:35;16.60;93.70
30379;DHT22;17168;49.164;9.060;2022-09-09T00:22:15;16.60;93.80
30379;DHT22;17168;49.164;9.060;2022-09-09T00:24:51;16.60;93.90
30379;DHT22;17168;49.164;9.060;2022-09-09T00:27:30;16.60;94.10
30379;DHT22;17168;49.164;9.060;2022-09-09T00:30:14;16.60;94.30
30379;DHT22;17168;49.164;9.060;2022-09-09T00:32:48;16.70;94.70
30379;DHT22;17168;49.164;9.060;2022-09-09T00:35:23;16.70;94.80
30379;DHT22;17168;49.164;9.060;2022-09-09T00:38:00;16.70;95.10
30379;DHT22;17168;49.164;9.060;2022-09-09T00:40:36;16.70;95.30
30379;DHT22;17168;49.164;9.060;2022-09-09T00:43:31;16.70;95.40
30379;DHT22;17168;49.164;9.060;2022-09-09T00:46:21;16.70;95.60
30379;DHT22;17168;49.164;9.060;2022-09-09T00:49:04;16.70;95.60
30379;DHT22;17168;49.164;9.060;2022-09-09T00:51:46;16.70;95.70
30379;DHT22;17168;49.164;9.060;2022-09-09T00:54:32;16.70;95.80
30379;DHT22;17168;49.164;9.060;2022-09-09T00:57:25;16.70;95.80
30379;DHT22;17168;49.164;9.060;2022-09-09T01:00:17;16.70;95.80
30379;DHT22;17168;49.164;9.060;2022-09-09T01:02:59;16.70;95.80
30379;DHT22;17168;49.164;9.060;2022-09-09T01:05:40;16.80;96.00
30379;DHT22;17168;49.164;9.060;2022-09-09T01:08:28;16.80;96.10
30379;DHT22;17168;49.164;9.060;2022-09-09T01:11:11;16.80;96.30
30379;DHT22;17168;49.164;9.060;2022-09-09T01:13:53;16.80;96.30
30379;DHT22;17168;49.164;9.060;2022-09-09T01:16:28;16.80;96.50
30379;DHT22;17168;49.164;9.060;2022-09-09T01:19:03;16.80;96.50
30379;DHT22;17168;49.164;9.060;2022-09-09T01:21:43;16.80;96.60
30379;DHT22;17168;49.164;9.060;2022-09-09T01:24:23;16.80;96.60
30379;DHT22;17168;49.164;9.060;2022-09-09T01:26:59;16.80;96.70
30379;DHT22;17168;49.164;9.060;2022-09-09T01:29:32;16.90;96.70
30379;DHT22;17168;49.164;9.060;2022-09-09T01:32:39;16.90;96.70
30379;DHT22;17168;49.164;9.060;2022-09-09T01:35:18;16.90;97.00
30379;DHT22;17168;49.164;9.060;2022-09-09T01:37:54;16.90;96.90
30379;DHT22;17168;49.164;9.060;2022-09-09T01:40:26;16.90;97.00
30379;DHT22;17168;49.164;9.060;2022-09-09T01:43:00;16.90;97.10
30379;DHT22;17168;49.164;9.060;2022-09-09T01:45:33;16.90;97.10
30379;DHT22;17168;49.164;9.060;2022-09-09T01:48:06;16.90;97.10
30379;DHT22;17168;49.164;9.060;2022-09-09T01:50:38;16.90;97.10
30379;DHT22;17168;49.164;9.060;2022-09-09T01:53:11;17.00;97.20
30379;DHT22;17168;49.164;9.060;2022-09-09T01:55:53;16.90;97.30
30379;DHT22;17168;49.164;9.060;2022-09-09T01:58:34;16.90;97.50
30379;DHT22;17168;49.164;9.060;2022-09-09T02:01:15;16.90;97.60
30379;DHT22;17168;49.164;9.060;2022-09-09T02:03:52;16.90;97.80
30379;DHT22;17168;49.164;9.060;2022-09-09T02:06:29;16.90;97.90
30379;DHT22;17168;49.164;9.060;2022-09-09T02:09:05;16.90;98.00
30379;DHT22;17168;49.164;9.060;2022-09-09T02:11:37;16.90;98.10
30379;DHT22;17168;49.164;9.060;2022-09-09T02:14:15;16.90;98.30
30379;DHT22;17168;49.164;9.060;2022-09-09T02:16:52;16.90;98.50
30379;DHT22;17168;49.164;9.060;2022-09-09T02:19:31;16.90;98.80
30379;DHT22;17168;49.164;9.060;2022-09-09T02:22:04;16.90;99.00
30379;DHT22;17168;49.164;9.060;2022-09-09T02:24:39;16.90;99.00
30379;DHT22;17168;49.164;9.060;2022-09-09T02:27:12;16.90;99.00
30379;DHT22;17168;49.164;9.060;2022-09-09T02:29:48;16.90;99.00
30379;DHT22;17168;49.164;9.060;2022-09-09T02:32:23;17.00;99.00
30379;DHT22;17168;49.164;9.060;2022-09-09T02:35:00;17.00;99.00
30379;DHT22;17168;49.164;9.060;2022-09-09T02:37:37;17.00;99.00
30379;DHT22;17168;49.164;9.060;2022-09-09T02:40:11;17.00;99.20
30379;DHT22;17168;49.164;9.060;2022-09-09T02:42:46;17.00;99.40
30379;DHT22;17168;49.164;9.060;2022-09-09T02:45:25;17.00;99.60
30379;DHT22;17168;49.164;9.060;2022-09-09T02:48:03;17.00;99.90
30379;DHT22;17168;49.164;9.060;2022-09-09T02:50:46;17.00;99.90
30379;DHT22;17168;49.164;9.060;2022-09-09T02:53:24;17.00;99.90
30379;DHT22;17168;49.164;9.060;2022-09-09T02:56:04;17.00;99.90
30379;DHT22;17168;49.164;9.060;2022-09-09T02:58:37;17.00;99.90
30379;DHT22;17168;49.164;9.060;2022-09-09T03:01:13;17.00;99.90
30379;DHT22;17168;49.164;9.060;2022-09-09T03:03:46;17.00;99.90
30379;DHT22;17168;49.164;9.060;2022-09-09T03:06:18;17.00;99.90
30379;DHT22;17168;49.164;9.060;2022-09-09T03:08:50;17.10;99.90
30379;DHT22;17168;49.164;9.060;2022-09-09T03:11:21;17.10;99.90
30379;DHT22;17168;49.164;9.060;2022-09-09T03:13:53;17.10;99.90
30379;DHT22;17168;49.164;9.060;2022-09-09T03:16:28;17.10;99.90
30379;DHT22;17168;49.164;9.060;2022-09-09T03:19:00;17.10;99.90
30379;DHT22;17168;49.164;9.060;2022-09-09T03:21:32;17.20;99.90
30379;DHT22;17168;49.164;9.060;2022-09-09T03:24:04;17.20;99.90
30379;DHT22;17168;49.164;9.060;2022-09-09T03:26:37;17.20;99.90
30379;DHT22;17168;49.164;9.060;2022-09-09T03:29:09;17.20;99.70
30379;DHT22;17168;49.164;9.060;2022-09-09T03:31:43;17.20;99.80
30379;DHT22;17168;49.164;9.060;2022-09-09T03:34:14;17.20;99.90
30379;DHT22;17168;49.164;9.060;2022-09-09T03:36:46;17.10;99.60
30379;DHT22;17168;49.164;9.060;2022-09-09T03:39:20;17.10;99.70
30379;DHT22;17168;49.164;9.060;2022-09-09T03:41:52;17.10;99.90
30379;DHT22;17168;49.164;9.060;2022-09-09T03:44:23;17.10;99.90
30379;DHT22;17168;49.164;9.060;2022-09-09T03:46:57;17.10;99.80
30379;DHT22;17168;49.164;9.060;2022-09-09T03:49:31;17.10;99.70
30379;DHT22;17168;49.164;9.060;2022-09-09T03:52:03;17.10;99.60
30379;DHT22;17168;49.164;9.060;2022-09-09T03:54:35;17.20;99.60
30379;DHT22;17168;49.164;9.060;2022-09-09T03:57:07;17.20;99.50
30379;DHT22;17168;49.164;9.060;2022-09-09T03:59:39;17.20;99.50
30379;DHT22;17168;49.164;9.060;2022-09-09T04:02:12;17.20;99.50
30379;DHT22;17168;49.164;9.060;2022-09-09T04:04:43;17.20;99.50
30379;DHT22;17168;49.164;9.060;2022-09-09T04:07:15;17.20;99.40
30379;DHT22;17168;49.164;9.060;2022-09-09T04:09:47;17.20;99.50
30379;DHT22;17168;49.164;9.060;2022-09-09T04:12:19;17.10;99.60
30379;DHT22;17168;49.164;9.060;2022-09-09T04:14:51;17.20;99.60
30379;DHT22;17168;49.164;9.060;2022-09-09T04:17:24;17.20;99.60
30379;DHT22;17168;49.164;9.060;2022-09-09T04:19:56;17.20;99.50
30379;DHT22;17168;49.164;9.060;2022-09-09T04:22:28;17.20;99.50
30379;DHT22;17168;49.164;9.060;2022-09-09T04:25:00;17.10;99.50
30379;DHT22;17168;49.164;9.060;2022-09-09T04:27:32;17.20;99.50
30379;DHT22;17168;49.164;9.060;2022-09-09T04:30:04;17.10;99.50
30379;DHT22;17168;49.164;9.060;2022-09-09T04:32:38;17.10;99.60
30379;DHT22;17168;49.164;9.060;2022-09-09T04:35:09;17.10;99.60
30379;DHT22;17168;49.164;9.060;2022-09-09T04:37:41;17.10;99.50
30379;DHT22;17168;49.164;9.060;2022-09-09T04:40:13;17.10;99.60
30379;DHT22;17168;49.164;9.060;2022-09-09T04:42:45;17.10;99.70
30379;DHT22;17168;49.164;9.060;2022-09-09T04:45:19;17.10;99.70
30379;DHT22;17168;49.164;9.060;2022-09-09T04:47:52;17.00;99.80
30379;DHT22;17168;49.164;9.060;2022-09-09T04:50:24;17.00;99.90
30379;DHT22;17168;49.164;9.060;2022-09-09T04:52:59;16.90;99.70
30379;DHT22;17168;49.164;9.060;2022-09-09T04:55:32;16.90;99.90
30379;DHT22;17168;49.164;9.060;2022-09-09T04:58:05;16.90;99.90
30379;DHT22;17168;49.164;9.060;2022-09-09T05:00:37;16.90;99.90
30379;DHT22;17168;49.164;9.060;2022-09-09T05:03:11;16.90;99.80
30379;DHT22;17168;49.164;9.060;2022-09-09T05:05:44;16.80;99.80
30379;DHT22;17168;49.164;9.060;2022-09-09T05:08:16;16.80;99.90
30379;DHT22;17168;49.164;9.060;2022-09-09T05:10:48;16.80;99.90
30379;DHT22;17168;49.164;9.060;2022-09-09T05:13:19;16.80;99.90
30379;DHT22;17168;49.164;9.060;2022-09-09T05:15:52;16.80;99.90
30379;DHT22;17168;49.164;9.060;2022-09-09T05:18:26;16.70;99.90
30379;DHT22;17168;49.164;9.060;2022-09-09T05:20:59;16.80;99.90
30379;DHT22;17168;49.164;9.060;2022-09-09T05:23:30;16.80;99.90
30379;DHT22;17168;49.164;9.060;2022-09-09T05:26:04;16.80;99.90
30379;DHT22;17168;49.164;9.060;2022-09-09T05:28:36;16.80;99.90
30379;DHT22;17168;49.164;9.060;2022-09-09T05:31:10;16.80;99.90
30379;DHT22;17168;49.164;9.060;2022-09-09T05:33:47;16.80;99.90
30379;DHT22;17168;49.164;9.060;2022-09-09T05:36:20;16.90;99.90
30379;DHT22;17168;49.164;9.060;2022-09-09T05:38:53;16.90;99.90
30379;DHT22;17168;49.164;9.060;2022-09-09T05:41:27;16.90;99.90
30379;DHT22;17168;49.164;9.060;2022-09-09T05:44:00;16.90;99.90
30379;DHT22;17168;49.164;9.060;2022-09-09T05:46:32;16.90;99.90
30379;DHT22;17168;49.164;9.060;2022-09-09T05:49:06;16.90;99.90
30379;DHT22;17168;49.164;9.060;2022-09-09T05:51:37;16.90;99.90
30379;DHT22;17168;49.164;9.060;2022-09-09T05:54:09;17.00;99.90
30379;DHT22;17168;49.164;9.060;2022-09-09T05:56:41;17.00;99.90
30379;DHT22;17168;49.164;9.060;2022-09-09T05:59:13;17.00;99.90
30379;DHT22;17168;49.164;9.060;2022-09-09T06:01:46;17.10;99.90
30379;DHT22;17168;49.164;9.060;2022-09-09T06:04:21;17.10;99.90
30379;DHT22;17168;49.164;9.060;2022-09-09T06:06:54;17.10;99.90
30379;DHT22;17168;49.164;9.060;2022-09-09T06:09:25;17.20;99.90
30379;DHT22;17168;49.164;9.060;2022-09-09T06:11:57;17.20;99.90
30379;DHT22;17168;49.164;9.060;2022-09-09T06:14:29;17.20;99.90
30379;DHT22;17168;49.164;9.060;2022-09-09T06:17:01;17.30;99.90
30379;DHT22;17168;49.164;9.060;2022-09-09T06:19:35;17.30;99.90
30379;DHT22;17168;49.164;9.060;2022-09-09T06:22:07;17.40;99.90
30379;DHT22;17168;49.164;9.060;2022-09-09T06:24:38;17.40;99.90
30379;DHT22;17168;49.164;9.060;2022-09-09T06:27:10;17.40;99.90
30379;DHT22;17168;49.164;9.060;2022-09-09T06:29:42;17.50;99.90
30379;DHT22;17168;49.164;9.060;2022-09-09T06:32:14;17.50;99.90
30379;DHT22;17168;49.164;9.060;2022-09-09T06:34:47;17.60;99.90
30379;DHT22;17168;49.164;9.060;2022-09-09T06:37:20;17.60;99.90
30379;DHT22;17168;49.164;9.060;2022-09-09T06:39:52;17.60;99.90
30379;DHT22;17168;49.164;9.060;2022-09-09T06:42:26;17.60;99.90
30379;DHT22;17168;49.164;9.060;2022-09-09T06:44:57;17.70;99.90
30379;DHT22;17168;49.164;9.060;2022-09-09T06:47:29;17.70;99.90
30379;DHT22;17168;49.164;9.060;2022-09-09T06:50:03;17.70;99.90
30379;DHT22;17168;49.164;9.060;2022-09-09T06:52:34;17.80;99.90
30379;DHT22;17168;49.164;9.060;2022-09-09T06:55:07;17.70;99.90
30379;DHT22;17168;49.164;9.060;2022-09-09T06:57:39;17.80;99.80
30379;DHT22;17168;49.164;9.060;2022-09-09T07:00:12;17.80;99.90
30379;DHT22;17168;49.164;9.060;2022-09-09T07:02:45;17.80;99.90
30379;DHT22;17168;49.164;9.060;2022-09-09T07:05:18;17.90;99.90
30379;DHT22;17168;49.164;9.060;2022-09-09T07:07:50;18.00;99.90
30379;DHT22;17168;49.164;9.060;2022-09-09T07:10:22;18.00;99.90
30379;DHT22;17168;49.164;9.060;2022-09-09T07:12:54;18.10;99.90
30379;DHT22;17168;49.164;9.060;2022-09-09T07:15:26;18.20;99.90
30379;DHT22;17168;49.164;9.060;2022-09-09T07:18:00;18.20;99.90
30379;DHT22;17168;49.164;9.060;2022-09-09T07:20:34;18.30;99.50
30379;DHT22;17168;49.164;9.060;2022-09-09T07:23:05;18.30;99.00
30379;DHT22;17168;49.164;9.060;2022-09-09T07:25:37;18.40;98.50
30379;DHT22;17168;49.164;9.060;2022-09-09T07:28:15;18.50;98.00
30379;DHT22;17168;49.164;9.060;2022-09-09T07:30:53;18.60;97.70
30379;DHT22;17168;49.164;9.060;2022-09-09T07:33:25;18.60;97.30
30379;DHT22;17168;49.164;9.060;2022-09-09T07:36:04;18.70;97.20
30379;DHT22;17168;49.164;9.060;2022-09-09T07:38:39;18.70;96.90
30379;DHT22;17168;49.164;9.060;2022-09-09T07:41:13;18.70;96.70
30379;DHT22;17168;49.164;9.060;2022-09-09T07:43:47;18.80;96.50
30379;DHT22;17168;49.164;9.060;2022-09-09T07:46:21;18.80;96.30
30379;DHT22;17168;49.164;9.060;2022-09-09T07:48:55;18.80;96.10
30379;DHT22;17168;49.164;9.060;2022-09-09T07:51:31;18.90;95.90
30379;DHT22;17168;49.164;9.060;2022-09-09T07:54:05;18.90;95.90
30379;DHT22;17168;49.164;9.060;2022-09-09T07:56:38;19.00;96.00
30379;DHT22;17168;49.164;9.060;2022-09-09T07:59:11;19.10;95.90
30379;DHT22;17168;49.164;9.060;2022-09-09T08:01:44;19.20;95.70
30379;DHT22;17168;49.164;9.060;2022-09-09T08:04:18;19.20;95.40
30379;DHT22;17168;49.164;9.060;2022-09-09T08:06:54;19.20;95.20
30379;DHT22;17168;49.164;9.060;2022-09-09T08:09:27;19.30;95.20
30379;DHT22;17168;49.164;9.060;2022-09-09T08:12:01;19.40;95.20
30379;DHT22;17168;49.164;9.060;2022-09-09T08:14:32;19.50;94.60
30379;DHT22;17168;49.164;9.060;2022-09-09T08:17:04;19.50;94.30
30379;DHT22;17168;49.164;9.060;2022-09-09T08:19:36;19.60;94.20
30379;DHT22;17168;49.164;9.060;2022-09-09T08:22:09;19.70;93.60
30379;DHT22;17168;49.164;9.060;2022-09-09T08:24:41;19.70;93.20
30379;DHT22;17168;49.164;9.060;2022-09-09T08:27:14;19.80;93.00
30379;DHT22;17168;49.164;9.060;2022-09-09T08:29:45;19.90;92.80
30379;DHT22;17168;49.164;9.060;2022-09-09T08:32:17;20.00;92.60
30379;DHT22;17168;49.164;9.060;2022-09-09T08:34:50;20.10;92.40
30379;DHT22;17168;49.164;9.060;2022-09-09T08:37:26;20.10;92.10
30379;DHT22;17168;49.164;9.060;2022-09-09T08:39:58;20.10;91.30
30379;DHT22;17168;49.164;9.060;2022-09-09T08:42:38;20.20;91.10
30379;DHT22;17168;49.164;9.060;2022-09-09T08:45:20;20.30;90.60
30379;DHT22;17168;49.164;9.060;2022-09-09T08:48:01;20.30;90.00
30379;DHT22;17168;49.164;9.060;2022-09-09T08:50:36;20.40;88.70
30379;DHT22;17168;49.164;9.060;2022-09-09T08:53:15;20.50;87.80
30379;DHT22;17168;49.164;9.060;2022-09-09T08:55:52;20.50;87.40
30379;DHT22;17168;49.164;9.060;2022-09-09T08:58:28;20.60;87.40
30379;DHT22;17168;49.164;9.060;2022-09-09T09:01:13;20.70;87.40
30379;DHT22;17168;49.164;9.060;2022-09-09T09:03:51;20.80;86.50
30379;DHT22;17168;49.164;9.060;2022-09-09T09:06:35;20.90;85.00
30379;DHT22;17168;49.164;9.060;2022-09-09T09:09:24;21.00;84.30
30379;DHT22;17168;49.164;9.060;2022-09-09T09:12:14;21.00;83.20
30379;DHT22;17168;49.164;9.060;2022-09-09T09:14:49;21.00;82.80
30379;DHT22;17168;49.164;9.060;2022-09-09T09:17:48;21.10;81.90
30379;DHT22;17168;49.164;9.060;2022-09-09T09:20:37;21.30;81.30
30379;DHT22;17168;49.164;9.060;2022-09-09T09:23:25;21.40;80.70
30379;DHT22;17168;49.164;9.060;2022-09-09T09:26:17;21.40;79.70
30379;DHT22;17168;49.164;9.060;2022-09-09T09:29:18;21.50;78.80
30379;DHT22;17168;49.164;9.060;2022-09-09T09:32:20;21.60;77.50
30379;DHT22;17168;49.164;9.060;2022-09-09T09:35:12;21.80;76.40
30379;DHT22;17168;49.164;9.060;2022-09-09T09:37:48;21.80;74.90
30379;DHT22;17168;49.164;9.060;2022-09-09T09:40:49;21.70;75.20
30379;DHT22;17168;49.164;9.060;2022-09-09T09:43:25;21.60;75.90
30379;DHT22;17168;49.164;9.060;2022-09-09T09:45:59;21.40;75.00
30379;DHT22;17168;49.164;9.060;2022-09-09T09:48:56;21.30;74.80
30379;DHT22;17168;49.164;9.060;2022-09-09T09:51:30;21.10;74.90
30379;DHT22;17168;49.164;9.060;2022-09-09T09:54:14;21.00;74.10
30379;DHT22;17168;49.164;9.060;2022-09-09T09:56:50;20.80;74.00
30379;DHT22;17168;49.164;9.060;2022-09-09T09:59:33;20.80;74.10
30379;DHT22;17168;49.164;9.060;2022-09-09T10:02:15;20.70;74.10
30379;DHT22;17168;49.164;9.060;2022-09-09T10:04:47;20.70;74.60
30379;DHT22;17168;49.164;9.060;2022-09-09T10:07:21;20.70;75.40
30379;DHT22;17168;49.164;9.060;2022-09-09T10:09:55;20.70;75.00
30379;DHT22;17168;49.164;9.060;2022-09-09T10:12:37;20.70;75.00
30379;DHT22;17168;49.164;9.060;2022-09-09T10:15:30;20.70;75.20
30379;DHT22;17168;49.164;9.060;2022-09-09T10:18:14;20.80;75.60
30379;DHT22;17168;49.164;9.060;2022-09-09T10:20:56;20.80;75.80
30379;DHT22;17168;49.164;9.060;2022-09-09T10:23:50;20.90;75.50
30379;DHT22;17168;49.164;9.060;2022-09-09T10:26:35;21.00;75.10
30379;DHT22;17168;49.164;9.060;2022-09-09T10:29:11;20.90;75.20
30379;DHT22;17168;49.164;9.060;2022-09-09T10:31:56;21.00;75.40
30379;DHT22;17168;49.164;9.060;2022-09-09T10:34:52;21.00;74.90
30379;DHT22;17168;49.164;9.060;2022-09-09T10:37:38;21.10;73.90
30379;DHT22;17168;49.164;9.060;2022-09-09T10:40:21;21.10;73.00
30379;DHT22;17168;49.164;9.060;2022-09-09T10:43:03;21.20;72.40
30379;DHT22;17168;49.164;9.060;2022-09-09T10:45:47;21.30;71.70
30379;DHT22;17168;49.164;9.060;2022-09-09T10:48:31;21.30;71.10
30379;DHT22;17168;49.164;9.060;2022-09-09T10:51:21;21.40;70.60
30379;DHT22;17168;49.164;9.060;2022-09-09T10:54:07;21.40;69.90
30379;DHT22;17168;49.164;9.060;2022-09-09T10:56:52;21.50;69.30
30379;DHT22;17168;49.164;9.060;2022-09-09T11:03:18;21.60;69.10
30379;DHT22;17168;49.164;9.060;2022-09-09T11:06:07;21.70;68.70
30379;DHT22;17168;49.164;9.060;2022-09-09T11:08:45;21.80;68.40
30379;DHT22;17168;49.164;9.060;2022-09-09T11:11:26;21.90;67.30
30379;DHT22;17168;49.164;9.060;2022-09-09T11:14:11;21.90;67.00
30379;DHT22;17168;49.164;9.060;2022-09-09T11:20:18;22.10;67.30
30379;DHT22;17168;49.164;9.060;2022-09-09T11:23:01;22.30;66.80
30379;DHT22;17168;49.164;9.060;2022-09-09T11:25:38;22.30;66.60
30379;DHT22;17168;49.164;9.060;2022-09-09T11:28:28;22.30;65.80
30379;DHT22;17168;49.164;9.060;2022-09-09T11:31:15;22.40;65.60
30379;DHT22;17168;49.164;9.060;2022-09-09T11:34:01;22.40;65.40
30379;DHT22;17168;49.164;9.060;2022-09-09T11:37:02;22.40;65.50
30379;DHT22;17168;49.164;9.060;2022-09-09T11:40:07;22.50;66.10
30379;DHT22;17168;49.164;9.060;2022-09-09T11:42:41;22.60;66.20
30379;DHT22;17168;49.164;9.060;2022-09-09T11:45:22;22.60;66.10
30379;DHT22;17168;49.164;9.060;2022-09-09T11:47:56;22.60;66.30
30379;DHT22;17168;49.164;9.060;2022-09-09T11:50:47;22.60;66.00
30379;DHT22;17168;49.164;9.060;2022-09-09T11:53:33;22.80;66.00
30379;DHT22;17168;49.164;9.060;2022-09-09T11:56:26;23.10;65.90
30379;DHT22;17168;49.164;9.060;2022-09-09T11:59:03;23.60;65.50
30379;DHT22;17168;49.164;9.060;2022-09-09T12:01:38;24.10;64.00
30379;DHT22;17168;49.164;9.060;2022-09-09T12:04:29;24.30;61.70
30379;DHT22;17168;49.164;9.060;2022-09-09T12:07:24;24.30;60.50
30379;DHT22;17168;49.164;9.060;2022-09-09T12:10:05;24.10;60.20
30379;DHT22;17168;49.164;9.060;2022-09-09T12:13:15;24.20;60.50
30379;DHT22;17168;49.164;9.060;2022-09-09T12:15:49;24.80;60.60
30379;DHT22;17168;49.164;9.060;2022-09-09T12:18:23;25.50;60.60
30379;DHT22;17168;49.164;9.060;2022-09-09T12:21:02;25.90;59.30
30379;DHT22;17168;49.164;9.060;2022-09-09T12:23:41;26.30;58.70
30379;DHT22;17168;49.164;9.060;2022-09-09T12:26:27;26.90;57.80
30379;DHT22;17168;49.164;9.060;2022-09-09T12:29:09;27.10;56.40
30379;DHT22;17168;49.164;9.060;2022-09-09T12:31:46;26.90;54.80
30379;DHT22;17168;49.164;9.060;2022-09-09T12:34:29;26.50;54.20
30379;DHT22;17168;49.164;9.060;2022-09-09T12:37:06;26.10;54.00
30379;DHT22;17168;49.164;9.060;2022-09-09T12:39:47;25.90;54.10
30379;DHT22;17168;49.164;9.060;2022-09-09T12:42:25;26.20;53.90
30379;DHT22;17168;49.164;9.060;2022-09-09T12:45:00;26.50;53.50
30379;DHT22;17168;49.164;9.060;2022-09-09T12:47:39;27.00;53.50
30379;DHT22;17168;49.164;9.060;2022-09-09T12:50:17;27.30;52.40
30379;DHT22;17168;49.164;9.060;2022-09-09T12:52:51;27.80;52.60
30379;DHT22;17168;49.164;9.060;2022-09-09T12:55:28;28.10;51.00
30379;DHT22;17168;49.164;9.060;2022-09-09T12:58:05;28.20;50.10
30379;DHT22;17168;49.164;9.060;2022-09-09T13:00:49;28.20;50.20
30379;DHT22;17168;49.164;9.060;2022-09-09T13:03:23;28.40;50.10
30379;DHT22;17168;49.164;9.060;2022-09-09T13:05:58;28.40;49.70
30379;DHT22;17168;49.164;9.060;2022-09-09T13:08:34;28.50;49.70
30379;DHT22;17168;49.164;9.060;2022-09-09T13:11:10;28.50;49.30
30379;DHT22;17168;49.164;9.060;2022-09-09T13:13:51;28.60;49.40
30379;DHT22;17168;49.164;9.060;2022-09-09T13:16:31;28.70;49.30
30379;DHT22;17168;49.164;9.060;2022-09-09T13:19:09;28.80;49.00
30379;DHT22;17168;49.164;9.060;2022-09-09T13:21:45;28.70;48.80
30379;DHT22;17168;49.164;9.060;2022-09-09T13:24:29;28.50;48.60
30379;DHT22;17168;49.164;9.060;2022-09-09T13:27:05;28.40;48.80
30379;DHT22;17168;49.164;9.060;2022-09-09T13:29:52;28.10;48.70
30379;DHT22;17168;49.164;9.060;2022-09-09T13:32:28;27.60;48.80
30379;DHT22;17168;49.164;9.060;2022-09-09T13:35:03;27.20;49.00
30379;DHT22;17168;49.164;9.060;2022-09-09T13:37:37;26.70;49.30
30379;DHT22;17168;49.164;9.060;2022-09-09T13:40:17;26.20;49.80
30379;DHT22;17168;49.164;9.060;2022-09-09T13:42:52;25.80;50.30
30379;DHT22;17168;49.164;9.060;2022-09-09T13:45:26;25.40;50.90
30379;DHT22;17168;49.164;9.060;2022-09-09T13:48:08;25.10;51.50
30379;DHT22;17168;49.164;9.060;2022-09-09T13:50:40;24.70;52.20
30379;DHT22;17168;49.164;9.060;2022-09-09T13:53:13;24.50;52.70
30379;DHT22;17168;49.164;9.060;2022-09-09T13:55:44;24.30;54.10
30379;DHT22;17168;49.164;9.060;2022-09-09T13:58:23;24.10;55.40
30379;DHT22;17168;49.164;9.060;2022-09-09T14:00:56;23.70;57.10
30379;DHT22;17168;49.164;9.060;2022-09-09T14:03:30;23.40;58.20
30379;DHT22;17168;49.164;9.060;2022-09-09T14:06:02;23.10;59.30
30379;DHT22;17168;49.164;9.060;2022-09-09T14:08:34;23.00;60.30
30379;DHT22;17168;49.164;9.060;2022-09-09T14:11:12;22.80;60.90
30379;DHT22;17168;49.164;9.060;2022-09-09T14:13:44;22.70;61.30
30379;DHT22;17168;49.164;9.060;2022-09-09T14:16:16;22.70;61.80
30379;DHT22;17168;49.164;9.060;2022-09-09T14:18:50;22.60;62.20
30379;DHT22;17168;49.164;9.060;2022-09-09T14:21:22;22.70;62.50
30379;DHT22;17168;49.164;9.060;2022-09-09T14:23:53;22.80;62.60
30379;DHT22;17168;49.164;9.060;2022-09-09T14:26:26;22.80;62.60
30379;DHT22;17168;49.164;9.060;2022-09-09T14:28:58;22.80;62.40
30379;DHT22;17168;49.164;9.060;2022-09-09T14:31:30;23.00;62.40
30379;DHT22;17168;49.164;9.060;2022-09-09T14:34:03;23.30;62.30
30379;DHT22;17168;49.164;9.060;2022-09-09T14:36:35;23.70;61.90
30379;DHT22;17168;49.164;9.060;2022-09-09T14:39:07;24.00;61.30
30379;DHT22;17168;49.164;9.060;2022-09-09T14:41:38;24.10;60.80
30379;DHT22;17168;49.164;9.060;2022-09-09T14:44:10;24.00;60.60
30379;DHT22;17168;49.164;9.060;2022-09-09T14:46:42;23.90;60.40
30379;DHT22;17168;49.164;9.060;2022-09-09T14:49:15;23.80;60.30
30379;DHT22;17168;49.164;9.060;2022-09-09T14:51:47;23.70;60.40
30379;DHT22;17168;49.164;9.060;2022-09-09T14:54:19;23.50;60.60
30379;DHT22;17168;49.164;9.060;2022-09-09T14:56:52;23.40;60.80
30379;DHT22;17168;49.164;9.060;2022-09-09T14:59:24;23.30;61.00
30379;DHT22;17168;49.164;9.060;2022-09-09T15:01:56;23.20;61.10
30379;DHT22;17168;49.164;9.060;2022-09-09T15:04:29;23.20;61.50
30379;DHT22;17168;49.164;9.060;2022-09-09T15:07:01;23.00;61.80
30379;DHT22;17168;49.164;9.060;2022-09-09T15:09:33;22.90;61.70
30379;DHT22;17168;49.164;9.060;2022-09-09T15:12:05;22.90;61.90
30379;DHT22;17168;49.164;9.060;2022-09-09T15:14:37;22.90;62.20
30379;DHT22;17168;49.164;9.060;2022-09-09T15:17:09;22.90;62.40
30379;DHT22;17168;49.164;9.060;2022-09-09T15:19:43;22.80;62.50
30379;DHT22;17168;49.164;9.060;2022-09-09T15:22:14;22.80;62.60
30379;DHT22;17168;49.164;9.060;2022-09-09T15:24:46;22.80;62.70
30379;DHT22;17168;49.164;9.060;2022-09-09T15:27:18;22.80;62.90
30379;DHT22;17168;49.164;9.060;2022-09-09T15:29:50;22.70;62.90
30379;DHT22;17168;49.164;9.060;2022-09-09T15:32:23;22.70;63.10
30379;DHT22;17168;49.164;9.060;2022-09-09T15:34:56;22.70;63.20
30379;DHT22;17168;49.164;9.060;2022-09-09T15:37:27;22.60;63.40
30379;DHT22;17168;49.164;9.060;2022-09-09T15:39:59;22.60;63.70
30379;DHT22;17168;49.164;9.060;2022-09-09T15:42:32;22.50;63.90
30379;DHT22;17168;49.164;9.060;2022-09-09T15:45:05;22.50;64.20
30379;DHT22;17168;49.164;9.060;2022-09-09T15:47:37;22.40;64.30
30379;DHT22;17168;49.164;9.060;2022-09-09T15:50:10;22.30;64.20
30379;DHT22;17168;49.164;9.060;2022-09-09T15:52:42;22.20;64.60
30379;DHT22;17168;49.164;9.060;2022-09-09T15:55:14;22.10;65.00
30379;DHT22;17168;49.164;9.060;2022-09-09T15:57:46;22.00;65.40
30379;DHT22;17168;49.164;9.060;2022-09-09T16:00:18;21.90;65.90
30379;DHT22;17168;49.164;9.060;2022-09-09T16:02:50;21.70;66.30
30379;DHT22;17168;49.164;9.060;2022-09-09T16:05:23;21.60;66.50
30379;DHT22;17168;49.164;9.060;2022-09-09T16:07:55;21.40;66.90
30379;DHT22;17168;49.164;9.060;2022-09-09T16:10:27;21.20;67.10
30379;DHT22;17168;49.164;9.060;2022-09-09T16:12:59;21.10;67.30
30379;DHT22;17168;49.164;9.060;2022-09-09T16:15:31;20.90;67.40
30379;DHT22;17168;49.164;9.060;2022-09-09T16:18:03;20.80;67.50
30379;DHT22;17168;49.164;9.060;2022-09-09T16:20:36;20.80;67.50
30379;DHT22;17168;49.164;9.060;2022-09-09T16:23:07;20.70;67.80
30379;DHT22;17168;49.164;9.060;2022-09-09T16:25:39;20.60;67.90
30379;DHT22;17168;49.164;9.060;2022-09-09T16:28:11;20.50;68.30
30379;DHT22;17168;49.164;9.060;2022-09-09T16:30:43;20.50;68.70
30379;DHT22;17168;49.164;9.060;2022-09-09T16:33:15;20.40;69.00
30379;DHT22;17168;49.164;9.060;2022-09-09T16:35:48;20.40;69.30